Time;durP1;ratioP1;P1;durP2;ratioP2;P2;SDS_P1;SDS_P2;PMS_P1;PMS_P2;Temp;Humidity;BMP_temperature;BMP_pressure;BME280_temperature;BME280_humidity;BME280_pressure;Samples;Min_cycle;Max_cycle;Signal;HPM_P1;HPM_P2
2022/07/08 00:00:57;;;;;;;7.90;1.35;;;14.20;98.50;;;;;;5075379;28;20443;-46
2022/07/08 00:03:23;;;;;;;8.50;1.30;;;14.60;98.70;;;;;;5074695;28;20044;-46
2022/07/08 00:05:49;;;;;;;9.73;1.80;;;13.90;98.60;;;;;;5073935;28;20040;-48
2022/07/08 00:08:15;;;;;;;6.10;1.33;;;13.90;99.00;;;;;;5075690;28;20048;-45
2022/07/08 00:10:40;;;;;;;10.55;1.50;;;14.00;98.90;;;;;;5075087;28;21185;-48
2022/07/08 00:13:08;;;;;;;14.43;2.15;;;14.00;99.00;;;;;;5074299;28;20043;-48
2022/07/08 00:15:34;;;;;;;10.88;1.52;;;15.60;99.80;;;;;;5074082;28;20036;-47
2022/07/08 00:18:00;;;;;;;10.18;1.42;;;15.40;99.90;;;;;;5074606;28;20404;-47
2022/07/08 00:20:25;;;;;;;8.50;1.50;;;14.40;99.60;;;;;;5074950;28;20168;-48
2022/07/08 00:22:51;;;;;;;7.80;1.30;;;15.00;99.60;;;;;;5073586;28;20058;-44
2022/07/08 00:25:16;;;;;;;13.70;2.63;;;14.50;99.40;;;;;;5073215;28;21196;-44
2022/07/08 00:27:44;;;;;;;11.90;1.98;;;14.60;99.70;;;;;;5074565;28;20052;-44
2022/07/08 00:30:12;;;;;;;9.38;2.03;;;13.90;99.90;;;;;;5073590;28;20040;-46
2022/07/08 00:32:38;;;;;;;9.82;1.70;;;13.80;99.90;;;;;;5073280;28;20050;-43
2022/07/08 00:35:05;;;;;;;8.18;1.48;;;13.70;99.90;;;;;;5073526;28;20534;-44
2022/07/08 00:37:31;;;;;;;9.25;1.60;;;13.60;99.90;;;;;;5072016;28;20392;-45
2022/07/08 00:39:57;;;;;;;14.98;1.90;;;13.70;99.90;;;;;;5073259;28;20040;-47
2022/07/08 00:42:22;;;;;;;11.05;1.80;;;13.80;99.90;;;;;;5075020;28;20592;-46
2022/07/08 00:44:50;;;;;;;11.57;1.85;;;14.60;99.90;;;;;;5072542;28;20040;-44
2022/07/08 00:47:17;;;;;;;10.18;1.63;;;13.70;99.90;;;;;;5073343;28;20500;-47
2022/07/08 00:49:44;;;;;;;10.15;1.40;;;13.80;99.90;;;;;;5073280;28;20071;-42
2022/07/08 00:52:10;;;;;;;7.13;1.40;;;13.60;99.90;;;;;;5073998;28;20135;-45
2022/07/08 00:54:37;;;;;;;11.68;1.98;;;13.50;99.90;;;;;;5073614;28;20054;-45
2022/07/08 00:57:03;;;;;;;14.23;1.73;;;14.30;99.90;;;;;;5074793;28;20121;-44
2022/07/08 00:59:29;;;;;;;11.15;1.48;;;13.30;99.90;;;;;;5074588;28;20044;-44
2022/07/08 01:01:57;;;;;;;8.00;1.35;;;13.50;99.90;;;;;;5073212;28;20051;-46
2022/07/08 01:04:23;;;;;;;9.32;1.60;;;14.20;99.90;;;;;;5068129;28;20051;-43
2022/07/08 01:06:48;;;;;;;13.18;1.30;;;13.40;99.90;;;;;;5073051;28;20067;-43
2022/07/08 01:09:16;;;;;;;16.00;1.90;;;13.40;99.90;;;;;;5072132;28;20036;-47
2022/07/08 01:11:45;;;;;;;7.75;1.42;;;13.50;99.90;;;;;;5072405;28;20047;-44
2022/07/08 01:14:11;;;;;;;8.93;1.88;;;13.20;99.90;;;;;;5074309;28;20153;-45
2022/07/08 01:16:40;;;;;;;11.02;1.58;;;13.80;99.90;;;;;;5074520;28;20118;-45
2022/07/08 01:19:07;;;;;;;9.82;1.60;;;13.10;99.90;;;;;;5074658;28;20036;-44
2022/07/08 01:21:33;;;;;;;8.43;1.20;;;13.20;99.90;;;;;;5073927;28;20032;-47
2022/07/08 01:23:59;;;;;;;11.52;2.22;;;13.20;99.90;;;;;;5072974;28;20109;-45
2022/07/08 01:26:24;;;;;;;10.60;1.50;;;12.90;99.90;;;;;;5074337;28;20785;-42
2022/07/08 01:28:50;;;;;;;7.60;1.38;;;12.90;99.90;;;;;;5074298;28;20273;-43
2022/07/08 01:31:16;;;;;;;11.45;1.52;;;12.80;99.90;;;;;;5072244;28;20295;-47
2022/07/08 01:33:43;;;;;;;9.65;1.90;;;12.90;99.90;;;;;;5072890;28;20078;-48
2022/07/08 01:36:09;;;;;;;9.85;1.58;;;13.10;99.90;;;;;;5074334;28;20083;-44
2022/07/08 01:38:36;;;;;;;9.07;1.35;;;13.60;99.90;;;;;;5076985;28;20664;-44
2022/07/08 01:41:02;;;;;;;12.00;2.10;;;13.10;99.90;;;;;;5077367;28;20040;-48
2022/07/08 01:43:28;;;;;;;7.82;1.30;;;13.00;99.90;;;;;;5076727;28;20711;-46
2022/07/08 01:45:53;;;;;;;9.57;1.35;;;14.00;99.90;;;;;;5077549;28;20056;-44
2022/07/08 01:48:19;;;;;;;11.73;1.80;;;14.00;99.90;;;;;;5076526;28;20035;-45
2022/07/08 01:50:46;;;;;;;12.85;1.60;;;13.10;99.90;;;;;;5077014;28;20040;-47
2022/07/08 01:53:12;;;;;;;7.07;1.23;;;12.90;99.90;;;;;;5077089;28;20052;-46
2022/07/08 01:55:38;;;;;;;8.35;1.60;;;13.70;99.90;;;;;;5074296;28;20082;-46
2022/07/08 01:58:04;;;;;;;10.02;1.45;;;12.90;99.90;;;;;;5077682;28;20179;-45
2022/07/08 02:00:29;;;;;;;10.43;1.40;;;12.80;99.90;;;;;;5075620;28;20299;-47
2022/07/08 02:02:55;;;;;;;12.07;1.83;;;13.50;99.90;;;;;;5078144;28;20032;-47
2022/07/08 02:05:23;;;;;;;9.88;1.73;;;12.70;99.90;;;;;;5077067;28;20040;-46
2022/07/08 02:07:48;;;;;;;12.88;1.80;;;12.70;99.90;;;;;;5077176;28;20043;-46
2022/07/08 02:10:16;;;;;;;8.00;1.52;;;12.70;99.90;;;;;;5077474;28;20035;-47
2022/07/08 02:12:41;;;;;;;15.30;1.52;;;12.50;99.90;;;;;;5077369;28;20040;-44
2022/07/08 02:15:09;;;;;;;12.02;2.42;;;14.30;99.90;;;;;;5076428;28;20416;-47
2022/07/08 02:17:43;;;;;;;6.90;1.30;;;12.70;99.90;;;;;;5075500;28;20043;-47
2022/07/08 02:20:13;;;;;;;8.93;1.73;;;12.60;99.90;;;;;;5077463;28;20044;-46
2022/07/08 02:22:42;;;;;;;11.93;2.17;;;12.50;99.90;;;;;;5075163;28;20473;-47
2022/07/08 02:25:08;;;;;;;7.32;1.58;;;13.60;99.90;;;;;;5076293;28;20678;-48
2022/07/08 02:27:34;;;;;;;10.63;1.60;;;12.40;99.90;;;;;;5076875;28;20036;-47
2022/07/08 02:30:00;;;;;;;7.95;1.17;;;12.20;99.90;;;;;;5077010;28;20144;-47
2022/07/08 02:32:25;;;;;;;11.05;1.75;;;12.40;99.90;;;;;;5076844;28;20035;-46
2022/07/08 02:34:51;;;;;;;11.73;1.67;;;12.40;99.90;;;;;;5077008;28;20035;-43
2022/07/08 02:37:20;;;;;;;10.38;1.63;;;13.60;99.90;;;;;;5074719;28;20041;-44
2022/07/08 02:39:46;;;;;;;12.93;2.20;;;12.20;99.90;;;;;;5075552;28;20118;-46
2022/07/08 02:42:12;;;;;;;11.43;1.60;;;13.70;99.90;;;;;;5076671;28;20478;-47
2022/07/08 02:44:37;;;;;;;11.27;1.67;;;12.20;99.90;;;;;;5074664;28;20036;-44
2022/07/08 02:47:07;;;;;;;5.07;1.30;;;12.30;99.90;;;;;;5075358;28;20052;-47
2022/07/08 02:49:33;;;;;;;10.52;1.90;;;12.10;99.90;;;;;;5074760;28;20119;-47
2022/07/08 02:52:01;;;;;;;11.15;1.58;;;11.90;99.90;;;;;;5075780;28;20055;-48
2022/07/08 02:54:26;;;;;;;10.57;2.17;;;12.10;99.90;;;;;;5076575;28;20036;-47
2022/07/08 02:56:54;;;;;;;12.32;1.92;;;11.90;99.90;;;;;;5076761;28;20040;-46
2022/07/08 02:59:19;;;;;;;11.55;1.58;;;13.50;99.90;;;;;;5077153;28;20713;-48
2022/07/08 03:01:45;;;;;;;13.23;1.83;;;12.10;99.90;;;;;;5076364;28;20035;-48
2022/07/08 03:04:14;;;;;;;11.10;1.70;;;12.50;99.90;;;;;;5075592;28;20079;-47
2022/07/08 03:06:40;;;;;;;11.63;1.52;;;12.90;99.90;;;;;;5074408;28;20433;-49
2022/07/08 03:09:06;;;;;;;15.07;1.92;;;11.70;99.90;;;;;;5076914;28;20036;-46
2022/07/08 03:11:31;;;;;;;11.90;1.95;;;12.00;99.90;;;;;;5075296;28;20083;-47
2022/07/08 03:13:57;;;;;;;12.50;1.98;;;11.90;99.90;;;;;;5076038;28;20123;-47
2022/07/08 03:16:23;;;;;;;12.27;1.75;;;12.10;99.90;;;;;;5074678;28;20506;-48
2022/07/08 03:18:48;;;;;;;12.40;2.40;;;11.90;99.90;;;;;;5074913;28;20556;-49
2022/07/08 03:21:14;;;;;;;12.73;2.80;;;11.70;99.90;;;;;;5076246;28;20151;-49
2022/07/08 03:23:40;;;;;;;13.48;2.55;;;11.70;99.90;;;;;;5073443;28;20071;-47
2022/07/08 03:26:06;;;;;;;9.20;1.63;;;11.80;99.90;;;;;;5075551;28;20042;-45
2022/07/08 03:28:32;;;;;;;10.50;1.88;;;13.00;99.90;;;;;;5076007;28;20039;-47
2022/07/08 03:30:57;;;;;;;10.00;1.95;;;12.70;99.90;;;;;;5074694;28;20090;-47
2022/07/08 03:33:23;;;;;;;11.07;2.20;;;11.70;99.90;;;;;;5075939;28;20032;-48
2022/07/08 03:35:49;;;;;;;17.33;2.17;;;13.40;99.90;;;;;;5073545;28;20044;-46
2022/07/08 03:38:16;;;;;;;11.00;2.22;;;12.50;99.90;;;;;;5075076;28;20044;-48
2022/07/08 03:43:29;;;;;;;13.18;1.98;;;11.80;99.90;;;;;;5074822;28;20051;-46
2022/07/08 03:45:55;;;;;;;10.10;2.10;;;11.50;99.90;;;;;;5074402;28;20044;-44
2022/07/08 03:48:20;;;;;;;10.00;2.25;;;11.80;99.90;;;;;;5074394;28;20032;-47
2022/07/08 03:50:46;;;;;;;11.27;2.03;;;12.80;99.90;;;;;;5074789;28;20040;-46
2022/07/08 03:53:12;;;;;;;15.07;2.30;;;11.90;99.90;;;;;;5074223;28;20052;-44
2022/07/08 03:55:37;;;;;;;10.45;2.08;;;11.80;99.90;;;;;;5075668;28;20054;-46
2022/07/08 03:58:03;;;;;;;18.27;3.28;;;14.10;99.90;;;;;;5075176;28;20500;-46
2022/07/08 04:00:29;;;;;;;8.45;2.00;;;12.00;99.90;;;;;;5075160;28;20040;-46
2022/07/08 04:02:55;;;;;;;12.88;2.10;;;11.90;99.90;;;;;;5072642;28;20764;-49
2022/07/08 04:05:20;;;;;;;8.23;2.17;;;11.80;99.90;;;;;;5074507;28;20476;-48
2022/07/08 04:07:46;;;;;;;10.02;2.15;;;12.00;99.90;;;;;;5073341;28;20193;-46
2022/07/08 04:10:12;;;;;;;11.52;2.78;;;12.60;99.90;;;;;;5074793;28;20075;-47
2022/07/08 04:12:38;;;;;;;11.70;2.42;;;13.00;99.90;;;;;;5072624;28;20043;-47
2022/07/08 04:15:06;;;;;;;13.75;3.10;;;12.80;99.90;;;;;;5072514;28;20467;-46
2022/07/08 04:17:34;;;;;;;11.75;2.97;;;12.30;99.90;;;;;;5074734;28;20056;-48
2022/07/08 04:20:00;;;;;;;12.10;2.05;;;12.60;99.90;;;;;;5073548;28;20036;-48
2022/07/08 04:22:25;;;;;;;14.77;2.70;;;13.00;99.90;;;;;;5074079;28;20040;-45
2022/07/08 04:24:51;;;;;;;14.57;2.28;;;12.70;99.90;;;;;;5074971;28;20040;-49
2022/07/08 04:27:16;;;;;;;13.10;2.15;;;12.60;99.90;;;;;;5073814;28;20074;-47
2022/07/08 04:29:42;;;;;;;13.27;2.20;;;12.70;99.90;;;;;;5073629;28;20535;-45
2022/07/08 04:32:08;;;;;;;14.73;2.60;;;12.90;99.90;;;;;;5074164;28;20024;-46
2022/07/08 04:34:33;;;;;;;15.35;2.95;;;12.70;99.90;;;;;;5073453;28;20036;-46
2022/07/08 04:36:59;;;;;;;13.15;2.72;;;13.40;99.90;;;;;;5073100;28;20044;-46
2022/07/08 04:39:25;;;;;;;10.70;2.50;;;12.70;99.90;;;;;;5073660;28;20142;-46
2022/07/08 04:41:51;;;;;;;8.60;1.90;;;14.80;99.90;;;;;;5068699;28;20131;-47
2022/07/08 04:44:17;;;;;;;12.40;2.33;;;12.90;99.90;;;;;;5073283;28;20119;-45
2022/07/08 04:46:42;;;;;;;10.68;2.03;;;13.00;99.90;;;;;;5074251;28;20047;-45
2022/07/08 04:49:08;;;;;;;14.70;2.10;;;13.50;99.90;;;;;;5073718;28;20040;-49
2022/07/08 04:51:34;;;;;;;10.80;2.28;;;13.40;99.90;;;;;;5074207;28;20728;-49
2022/07/08 04:54:01;;;;;;;8.73;2.10;;;13.30;99.90;;;;;;5072199;28;20079;-44
2022/07/08 04:56:26;;;;;;;11.40;2.30;;;13.70;99.90;;;;;;5074783;28;20518;-48
2022/07/08 04:58:52;;;;;;;12.23;2.03;;;13.30;99.90;;;;;;5073033;28;20042;-46
2022/07/08 05:01:18;;;;;;;10.32;1.70;;;13.40;99.90;;;;;;5075013;28;20036;-48
2022/07/08 05:03:44;;;;;;;12.70;2.38;;;14.70;99.90;;;;;;5073283;28;20497;-48
2022/07/08 05:06:12;;;;;;;8.88;1.88;;;13.60;99.90;;;;;;5073725;28;20040;-43
2022/07/08 05:08:37;;;;;;;15.05;2.97;;;14.50;99.90;;;;;;5074541;28;20130;-48
2022/07/08 05:11:03;;;;;;;10.88;2.10;;;13.50;99.90;;;;;;5074449;28;20051;-46
2022/07/08 05:13:29;;;;;;;13.32;2.63;;;13.70;99.90;;;;;;5076547;28;20051;-45
2022/07/08 05:15:55;;;;;;;11.15;2.05;;;15.00;99.90;;;;;;5077882;28;20401;-46
2022/07/08 05:18:20;;;;;;;10.57;1.85;;;15.60;99.90;;;;;;5077410;28;20232;-47
2022/07/08 05:20:48;;;;;;;12.35;2.25;;;14.20;99.90;;;;;;5077251;28;20570;-49
2022/07/08 05:23:14;;;;;;;11.23;1.92;;;13.90;99.90;;;;;;5077601;28;20077;-48
2022/07/08 05:25:39;;;;;;;8.90;1.80;;;14.30;99.90;;;;;;5077870;28;20279;-44
2022/07/08 05:28:07;;;;;;;7.63;1.45;;;14.50;99.90;;;;;;5078903;28;20059;-46
2022/07/08 05:30:33;;;;;;;12.07;1.80;;;14.50;99.90;;;;;;5077111;28;20486;-46
2022/07/08 05:32:58;;;;;;;14.27;2.33;;;14.70;99.90;;;;;;5076728;28;20652;-46
2022/07/08 05:35:26;;;;;;;10.52;1.90;;;15.00;99.90;;;;;;5076138;28;20069;-49
2022/07/08 05:37:52;;;;;;;9.98;1.95;;;15.10;99.90;;;;;;5076743;28;20070;-49
2022/07/08 05:40:17;;;;;;;13.10;2.10;;;17.10;99.90;;;;;;5076861;28;20134;-47
2022/07/08 05:42:43;;;;;;;12.38;2.53;;;15.10;99.90;;;;;;5075459;28;20452;-44
2022/07/08 05:45:13;;;;;;;9.98;1.73;;;15.30;99.90;;;;;;5077585;28;20036;-48
2022/07/08 05:47:39;;;;;;;9.20;1.73;;;16.20;99.90;;;;;;5076713;28;20496;-48
2022/07/08 05:50:05;;;;;;;15.02;3.50;;;15.30;99.90;;;;;;5076339;28;20061;-48
2022/07/08 05:52:33;;;;;;;16.60;2.15;;;15.50;99.90;;;;;;5077753;28;20052;-48
2022/07/08 05:54:59;;;;;;;14.98;2.10;;;17.70;99.90;;;;;;5076922;28;20056;-49
2022/07/08 05:57:25;;;;;;;12.48;2.08;;;15.70;99.90;;;;;;5076929;28;20787;-49
2022/07/08 05:59:54;;;;;;;12.45;2.03;;;15.70;99.90;;;;;;5077242;28;20036;-46
2022/07/08 06:02:20;;;;;;;10.50;1.90;;;15.90;99.90;;;;;;5076311;28;20043;-48
2022/07/08 06:04:45;;;;;;;10.27;2.20;;;17.40;99.90;;;;;;5077323;28;20044;-46
2022/07/08 06:07:15;;;;;;;10.60;2.53;;;15.90;99.90;;;;;;5076568;28;20443;-47
2022/07/08 06:09:41;;;;;;;9.50;2.03;;;16.10;99.90;;;;;;5076728;28;20058;-47
2022/07/08 06:12:07;;;;;;;6.88;1.90;;;16.10;99.90;;;;;;5075653;28;20040;-49
2022/07/08 06:14:32;;;;;;;11.35;2.13;;;16.20;99.90;;;;;;5077742;28;20063;-48
2022/07/08 06:16:58;;;;;;;9.73;1.90;;;16.20;99.90;;;;;;5077128;28;20071;-48
2022/07/08 06:19:24;;;;;;;14.23;2.42;;;18.00;99.90;;;;;;5077728;28;20040;-50
2022/07/08 06:21:50;;;;;;;11.13;2.15;;;16.30;99.90;;;;;;5076341;28;20113;-44
2022/07/08 06:24:18;;;;;;;12.38;2.33;;;17.30;99.90;;;;;;5075672;28;20067;-48
2022/07/08 06:26:46;;;;;;;9.65;1.92;;;16.40;99.90;;;;;;5075224;28;20051;-48
2022/07/08 06:29:12;;;;;;;9.70;1.92;;;17.50;99.90;;;;;;5076718;28;20083;-48
2022/07/08 06:31:38;;;;;;;15.63;2.63;;;16.30;99.90;;;;;;5075297;28;20120;-49
2022/07/08 06:34:04;;;;;;;14.35;2.53;;;16.30;99.90;;;;;;5076352;28;20032;-49
2022/07/08 06:36:32;;;;;;;17.38;3.25;;;16.50;99.90;;;;;;5074840;28;20058;-48
2022/07/08 06:38:58;;;;;;;10.32;2.00;;;18.70;99.90;;;;;;5074520;28;20653;-48
2022/07/08 06:41:24;;;;;;;13.35;2.53;;;16.50;99.90;;;;;;5074269;28;20565;-48
2022/07/08 06:43:50;;;;;;;8.68;2.60;;;16.80;99.90;;;;;;5075962;28;20812;-48
2022/07/08 06:46:16;;;;;;;12.52;1.98;;;16.40;99.90;;;;;;5077081;28;20055;-48
2022/07/08 06:48:44;;;;;;;13.10;2.17;;;16.60;99.90;;;;;;5075895;28;20509;-48
2022/07/08 06:51:11;;;;;;;15.95;2.80;;;16.90;99.90;;;;;;5075268;28;20028;-47
2022/07/08 06:56:21;;;;;;;13.55;2.20;;;17.50;99.90;;;;;;5075662;28;20201;-48
2022/07/08 06:58:49;;;;;;;11.07;2.30;;;17.70;99.90;;;;;;5076209;28;20126;-45
2022/07/08 07:01:15;;;;;;;11.73;1.92;;;18.00;99.90;;;;;;5074369;28;20044;-47
2022/07/08 07:03:40;;;;;;;10.57;2.00;;;18.30;99.90;;;;;;5075302;28;20078;-46
2022/07/08 07:06:06;;;;;;;18.80;2.38;;;20.00;99.90;;;;;;5076549;28;20067;-47
2022/07/08 07:08:32;;;;;;;12.35;2.20;;;18.60;99.90;;;;;;5075539;28;20229;-44
2022/07/08 07:10:58;;;;;;;12.07;2.60;;;18.40;99.90;;;;;;5075119;28;20036;-45
2022/07/08 07:13:24;;;;;;;10.90;1.80;;;18.60;99.90;;;;;;5075333;28;20242;-47
2022/07/08 07:15:50;;;;;;;9.95;2.00;;;19.00;99.90;;;;;;5076124;28;20040;-47
2022/07/08 07:18:16;;;;;;;12.63;2.90;;;21.30;99.90;;;;;;5075231;28;20396;-46
2022/07/08 07:20:41;;;;;;;8.77;1.90;;;19.90;98.50;;;;;;5073490;28;20052;-48
2022/07/08 07:23:07;;;;;;;12.25;2.15;;;22.00;96.90;;;;;;5074234;28;20140;-47
2022/07/08 07:25:33;;;;;;;6.53;1.90;;;19.60;95.60;;;;;;5074960;28;20127;-48
2022/07/08 07:27:58;;;;;;;11.38;1.85;;;19.50;94.70;;;;;;5076249;28;20437;-44
2022/07/08 07:30:25;;;;;;;12.15;1.83;;;20.60;92.50;;;;;;5075120;28;20139;-47
2022/07/08 07:32:54;;;;;;;9.50;1.73;;;19.70;92.10;;;;;;5075415;28;20039;-49
2022/07/08 07:35:21;;;;;;;11.35;2.13;;;19.60;92.50;;;;;;5074532;28;20055;-46
2022/07/08 07:37:47;;;;;;;10.15;2.10;;;19.30;93.50;;;;;;5075197;28;20039;-47
2022/07/08 07:40:12;;;;;;;9.48;2.00;;;19.30;94.30;;;;;;5074813;28;20032;-46
2022/07/08 07:42:39;;;;;;;8.10;1.60;;;19.40;93.40;;;;;;5074374;28;20036;-46
2022/07/08 07:45:06;;;;;;;10.18;1.88;;;19.30;93.20;;;;;;5075642;28;20118;-44
2022/07/08 07:47:32;;;;;;;9.25;2.00;;;19.30;93.10;;;;;;5057485;28;20155;-46
2022/07/08 07:49:57;;;;;;;10.02;1.95;;;20.60;94.10;;;;;;5074730;28;20131;-47
2022/07/08 07:52:24;;;;;;;10.88;2.08;;;19.30;92.70;;;;;;5073045;28;20048;-49
2022/07/08 07:54:50;;;;;;;7.38;1.60;;;19.30;92.70;;;;;;5074858;28;20052;-45
2022/07/08 07:57:16;;;;;;;12.13;2.00;;;19.90;92.60;;;;;;5075321;28;20374;-49
2022/07/08 07:59:42;;;;;;;13.23;1.85;;;19.30;93.00;;;;;;5073418;28;20036;-48
2022/07/08 08:02:08;;;;;;;10.07;1.85;;;19.80;93.50;;;;;;5073325;28;20047;-46
2022/07/08 08:04:34;;;;;;;12.10;2.10;;;20.10;91.70;;;;;;5074977;28;20043;-45
2022/07/08 08:07:00;;;;;;;10.75;1.95;;;22.00;92.00;;;;;;5075216;28;20531;-45
2022/07/08 08:09:26;;;;;;;8.52;1.85;;;20.90;88.30;;;;;;5075012;28;20544;-48
2022/07/08 08:11:52;;;;;;;6.95;1.60;;;21.00;77.60;;;;;;5074008;28;20040;-49
2022/07/08 08:14:18;;;;;;;7.57;1.63;;;20.60;69.70;;;;;;5074543;28;20054;-46
2022/07/08 08:16:43;;;;;;;10.05;1.98;;;22.60;66.60;;;;;;5073203;28;20040;-47
2022/07/08 08:19:09;;;;;;;9.57;1.80;;;22.20;69.50;;;;;;5074260;28;20050;-48
2022/07/08 08:21:36;;;;;;;8.68;2.25;;;20.10;74.50;;;;;;5073835;28;20081;-44
2022/07/08 08:24:02;;;;;;;7.65;1.80;;;20.10;73.00;;;;;;5073727;28;20051;-49
2022/07/08 08:26:30;;;;;;;7.43;1.83;;;19.90;67.00;;;;;;5073339;28;20079;-48
2022/07/08 08:28:55;;;;;;;9.95;2.13;;;19.80;69.50;;;;;;5074541;28;20812;-48
2022/07/08 08:31:21;;;;;;;10.45;2.60;;;21.00;72.40;;;;;;5073790;28;20031;-46
2022/07/08 08:33:47;;;;;;;8.40;2.20;;;19.80;73.60;;;;;;5074548;28;20591;-48
2022/07/08 08:36:12;;;;;;;4.82;1.38;;;19.50;78.60;;;;;;5072328;28;20397;-49
2022/07/08 08:38:38;;;;;;;6.95;1.67;;;19.60;82.30;;;;;;5074401;28;20484;-47
2022/07/08 08:41:07;;;;;;;5.53;1.90;;;20.00;84.80;;;;;;5073323;28;20690;-48
2022/07/08 08:43:33;;;;;;;8.85;1.88;;;19.60;88.10;;;;;;5073999;28;21201;-48
2022/07/08 08:45:59;;;;;;;8.32;1.67;;;19.50;86.80;;;;;;5074867;28;20036;-49
2022/07/08 08:48:30;;;;;;;7.90;1.52;;;20.50;85.70;;;;;;5073278;28;20068;-49
2022/07/08 08:50:56;;;;;;;12.65;2.17;;;19.40;83.00;;;;;;5073500;28;20510;-48
2022/07/08 08:53:25;;;;;;;9.10;1.77;;;19.50;84.40;;;;;;5074029;28;21278;-46
2022/07/08 08:55:53;;;;;;;8.25;1.92;;;19.40;78.80;;;;;;5073296;28;20141;-50
2022/07/08 08:58:20;;;;;;;8.77;2.13;;;19.60;79.00;;;;;;5073894;28;20074;-49
2022/07/08 09:00:46;;;;;;;9.80;1.80;;;21.00;77.00;;;;;;5072273;28;20805;-46
2022/07/08 09:03:13;;;;;;;7.93;1.70;;;19.50;75.50;;;;;;5074060;28;20040;-48
2022/07/08 09:05:39;;;;;;;5.47;1.40;;;19.40;77.20;;;;;;5072518;28;20043;-46
2022/07/08 09:08:05;;;;;;;4.75;1.25;;;19.50;76.30;;;;;;5073394;28;20040;-47
2022/07/08 09:10:30;;;;;;;6.80;1.45;;;19.40;67.90;;;;;;5074173;28;20518;-47
2022/07/08 09:13:07;;;;;;;5.43;1.48;;;19.40;65.40;;;;;;5071554;28;20094;-49
2022/07/08 09:15:37;;;;;;;7.68;1.50;;;19.50;66.70;;;;;;5073705;28;20115;-47
2022/07/08 09:18:06;;;;;;;8.13;1.63;;;20.90;66.90;;;;;;5073507;28;20032;-48
2022/07/08 09:20:49;;;;;;;8.27;1.65;;;19.60;67.10;;;;;;5073885;28;20036;-50
2022/07/08 09:23:18;;;;;;;11.55;1.63;;;20.30;61.40;;;;;;5073038;28;20384;-49
2022/07/08 09:26:05;;;;;;;9.50;1.70;;;20.40;60.50;;;;;;5070245;28;20121;-50
2022/07/08 09:28:40;;;;;;;8.93;2.38;;;20.60;23.90;;;;;;5072428;28;20119;-46
2022/07/08 09:31:07;;;;;;;5.05;1.40;;;20.60;43.30;;;;;;5072329;28;20035;-46
2022/07/08 09:33:34;;;;;;;11.32;1.80;;;21.20;48.70;;;;;;5073172;28;20114;-49
2022/07/08 09:36:01;;;;;;;7.07;1.60;;;21.20;46.50;;;;;;5072589;28;20056;-48
2022/07/08 09:38:37;;;;;;;7.00;1.70;;;21.20;48.90;;;;;;5073856;28;20090;-46
2022/07/08 09:41:09;;;;;;;8.50;2.03;;;20.90;43.90;;;;;;5073128;28;20048;-47
2022/07/08 09:43:42;;;;;;;;;;;20.70;44.30;;;;;;5073424;28;20063;-45
2022/07/08 09:46:12;;;;;;;11.23;1.73;;;20.50;58.90;;;;;;5073525;28;19924;-45
2022/07/08 09:48:38;;;;;;;7.85;2.38;;;20.30;59.50;;;;;;5073243;28;20051;-50
2022/07/08 09:51:10;;;;;;;10.10;1.67;;;20.80;63.50;;;;;;5073753;28;20042;-45
2022/07/08 09:53:37;;;;;;;6.88;1.75;;;20.20;67.00;;;;;;5072860;28;20051;-47
2022/07/08 09:56:04;;;;;;;8.00;1.80;;;20.40;67.50;;;;;;5073646;28;20955;-45
2022/07/08 09:58:32;;;;;;;11.35;1.92;;;20.60;62.10;;;;;;5076184;28;20043;-48
2022/07/08 10:01:00;;;;;;;8.90;2.45;;;20.60;54.80;;;;;;5077816;28;20044;-48
2022/07/08 10:03:27;;;;;;;8.13;1.60;;;20.60;53.20;;;;;;5077587;28;20821;-48
2022/07/08 10:05:54;;;;;;;7.63;1.60;;;20.90;57.90;;;;;;5076739;28;20051;-48
2022/07/08 10:08:21;;;;;;;11.38;2.10;;;21.00;56.80;;;;;;5076790;28;20552;-48
2022/07/08 10:10:53;;;;;;;7.50;2.00;;;21.10;59.50;;;;;;5076150;28;20496;-49
2022/07/08 10:13:25;;;;;;;7.35;1.67;;;21.00;52.00;;;;;;5076669;28;20144;-48
2022/07/08 10:16:00;;;;;;;6.50;1.58;;;20.90;51.60;;;;;;5076655;28;20115;-48
2022/07/08 10:18:54;;;;;;;12.48;2.90;;;21.00;56.90;;;;;;5077727;28;20047;-45
2022/07/08 10:21:23;;;;;;;8.73;1.73;;;20.90;48.00;;;;;;5073685;28;20052;-45
2022/07/08 10:23:51;;;;;;;7.03;1.60;;;21.00;40.50;;;;;;5077625;28;20051;-48
2022/07/08 10:26:22;;;;;;;10.88;2.05;;;20.60;46.70;;;;;;5076462;28;21059;-47
2022/07/08 10:29:07;;;;;;;9.48;2.58;;;20.80;49.50;;;;;;5076429;28;20040;-47
2022/07/08 10:31:50;;;;;;;10.35;1.80;;;20.70;44.50;;;;;;5077296;28;20586;-46
2022/07/08 10:34:21;;;;;;;6.45;1.48;;;20.40;46.30;;;;;;5075038;28;20051;-47
2022/07/08 10:36:50;;;;;;;7.05;1.90;;;20.30;52.40;;;;;;5075467;28;20082;-47
2022/07/08 10:39:36;;;;;;;5.05;1.60;;;20.20;52.10;;;;;;5075364;28;20047;-44
2022/07/08 10:42:04;;;;;;;6.72;1.52;;;20.60;53.40;;;;;;5075553;28;20371;-44
2022/07/08 10:44:42;;;;;;;7.38;1.65;;;20.50;51.00;;;;;;5076563;28;20035;-47
2022/07/08 10:47:17;;;;;;;7.40;1.67;;;18.80;59.30;;;;;;5075733;28;20036;-48
2022/07/08 10:49:47;;;;;;;6.82;1.85;;;21.10;53.20;;;;;;5075519;28;20047;-47
2022/07/08 10:52:14;;;;;;;8.15;1.80;;;21.90;38.10;;;;;;5074400;28;20066;-48
2022/07/08 10:54:40;;;;;;;8.52;1.70;;;21.60;28.30;;;;;;5076425;28;20055;-51
2022/07/08 10:57:15;;;;;;;5.68;1.60;;;21.10;29.50;;;;;;5076248;28;20534;-46
2022/07/08 10:59:40;;;;;;;8.32;1.70;;;22.10;21.90;;;;;;5075832;28;20032;-47
2022/07/08 11:02:15;;;;;;;8.85;1.88;;;22.10;19.60;;;;;;5076094;28;20040;-45
2022/07/08 11:04:41;;;;;;;8.98;1.83;;;22.20;7.90;;;;;;5074146;28;20044;-46
2022/07/08 11:07:27;;;;;;;9.05;1.92;;;22.30;10.70;;;;;;5075773;28;20055;-48
2022/07/08 11:10:11;;;;;;;8.10;1.90;;;22.40;14.40;;;;;;5073773;28;20397;-44
2022/07/08 11:12:46;;;;;;;9.48;1.95;;;22.50;1.00;;;;;;5074367;28;20054;-47
2022/07/08 11:15:16;;;;;;;8.50;2.00;;;22.60;1.00;;;;;;5074180;28;20531;-46
2022/07/08 11:17:43;;;;;;;8.93;2.00;;;22.90;1.00;;;;;;5071400;28;20048;-49
2022/07/08 11:20:11;;;;;;;7.70;2.13;;;22.90;1.00;;;;;;5074052;28;20051;-46
2022/07/08 11:22:39;;;;;;;9.98;2.10;;;22.70;1.00;;;;;;5073335;28;20024;-47
2022/07/08 11:25:08;;;;;;;6.95;1.50;;;22.50;1.00;;;;;;5075923;28;20129;-45
2022/07/08 11:27:34;;;;;;;10.35;2.30;;;22.50;5.70;;;;;;5075753;28;20157;-49
2022/07/08 11:30:01;;;;;;;16.83;2.63;;;22.80;23.00;;;;;;5076375;28;20047;-46
2022/07/08 11:32:27;;;;;;;10.27;2.17;;;23.10;2.10;;;;;;5075979;28;20445;-48
2022/07/08 11:34:55;;;;;;;9.20;2.35;;;22.80;1.00;;;;;;5075620;28;20051;-47
2022/07/08 11:37:21;;;;;;;10.82;2.47;;;22.80;1.00;;;;;;5074893;28;20450;-46
2022/07/08 11:39:47;;;;;;;6.28;1.92;;;22.40;3.20;;;;;;5075102;28;20833;-45
2022/07/08 11:42:16;;;;;;;11.73;2.63;;;22.50;10.20;;;;;;5074348;28;20039;-45
2022/07/08 11:44:45;;;;;;;11.02;2.83;;;22.20;22.40;;;;;;5075149;28;20040;-47
2022/07/08 11:47:17;;;;;;;10.60;3.10;;;22.20;35.00;;;;;;5075545;28;20497;-48
2022/07/08 11:49:43;;;;;;;10.52;2.88;;;22.30;33.40;;;;;;5074646;28;20040;-45
2022/07/08 11:52:09;;;;;;;8.73;2.33;;;22.20;29.40;;;;;;5074867;28;20050;-47
2022/07/08 11:54:35;;;;;;;13.07;3.30;;;22.40;34.00;;;;;;5075309;28;20999;-49
2022/07/08 11:57:04;;;;;;;11.40;2.78;;;22.50;33.20;;;;;;5074780;28;20054;-46
2022/07/08 11:59:32;;;;;;;10.82;2.30;;;22.10;37.30;;;;;;5075928;28;20039;-47
2022/07/08 12:01:59;;;;;;;12.80;3.65;;;22.40;45.00;;;;;;5074927;28;20032;-44
2022/07/08 12:04:26;;;;;;;10.68;3.53;;;22.30;42.40;;;;;;5073774;28;20040;-44
2022/07/08 12:06:53;;;;;;;16.83;3.08;;;22.20;39.60;;;;;;5074632;28;20048;-47
2022/07/08 12:09:22;;;;;;;13.40;3.33;;;21.80;47.80;;;;;;5074704;28;20377;-44
2022/07/08 12:11:49;;;;;;;13.60;2.95;;;22.10;44.00;;;;;;5073312;28;20500;-47
2022/07/08 12:14:15;;;;;;;8.63;2.50;;;22.20;52.20;;;;;;5073678;28;20793;-46
2022/07/08 12:16:52;;;;;;;7.50;2.42;;;22.60;56.80;;;;;;5073987;28;20044;-46
2022/07/08 12:19:24;;;;;;;9.35;2.22;;;23.20;50.90;;;;;;5074529;28;20048;-44
2022/07/08 12:21:50;;;;;;;12.07;2.55;;;23.40;40.80;;;;;;5073427;28;20093;-45
2022/07/08 12:24:21;;;;;;;8.70;2.53;;;25.60;36.50;;;;;;5073469;28;20032;-49
2022/07/08 12:26:58;;;;;;;;;;;23.70;28.10;;;;;;5056146;28;20044;-48
2022/07/08 12:29:31;;;;;;;10.02;2.67;;;23.50;1.00;;;;;;5073097;28;19923;-46
2022/07/08 12:31:56;;;;;;;9.60;2.25;;;23.60;19.20;;;;;;5074469;28;20687;-45
2022/07/08 12:34:25;;;;;;;10.52;2.38;;;23.60;12.70;;;;;;5074216;28;20035;-49
2022/07/08 12:36:52;;;;;;;8.27;2.22;;;24.90;16.90;;;;;;5074980;28;20545;-49
2022/07/08 12:39:20;;;;;;;10.43;2.58;;;23.70;15.50;;;;;;5072040;28;20036;-45
2022/07/08 12:42:01;;;;;;;9.85;2.70;;;24.20;17.40;;;;;;5074016;28;20048;-47
2022/07/08 12:44:32;;;;;;;11.80;2.53;;;24.40;11.40;;;;;;5074061;28;20035;-47
2022/07/08 12:46:59;;;;;;;16.90;3.15;;;24.30;1.00;;;;;;5072909;28;20115;-47
2022/07/08 12:49:30;;;;;;;9.63;2.25;;;24.40;2.40;;;;;;5074179;28;20043;-45